Time;durP1;ratioP1;P1;durP2;ratioP2;P2;SDS_P1;SDS_P2;PMS_P1;PMS_P2;Temp;Humidity;BMP_temperature;BMP_pressure;BME280_temperature;BME280_humidity;BME280_pressure;Samples;Min_cycle;Max_cycle;Signal;HPM_P1;HPM_P2
2022/11/22 00:02:23;;;;;;;53.08;22.25;;;;;;;-3.24;100.00;99381.41;4968606;28;20396;-74
2022/11/22 00:04:48;;;;;;;52.58;21.85;;;;;;;-3.24;100.00;99390.06;4964962;28;20105;-74
2022/11/22 00:07:14;;;;;;;54.28;22.38;;;;;;;-3.27;100.00;99389.47;4959925;28;20038;-74
2022/11/22 00:09:39;;;;;;;;;;;;;;;-3.19;100.00;99393.19;4960407;28;20352;-74
2022/11/22 00:12:04;;;;;;;57.37;25.03;;;;;;;-3.25;100.00;99383.19;4960092;28;20487;-74
2022/11/22 00:14:30;;;;;;;48.72;22.50;;;;;;;-3.27;100.00;99360.75;4968464;28;20654;-74
2022/11/22 00:16:55;;;;;;;51.03;22.33;;;;;;;-3.23;100.00;99343.91;4965070;28;20051;-74
2022/11/22 00:19:20;;;;;;;54.90;22.73;;;;;;;-3.20;100.00;99360.22;4960335;28;20118;-74
2022/11/22 00:21:46;;;;;;;55.17;21.45;;;;;;;-3.17;100.00;99355.72;4966107;28;20247;-74
2022/11/22 00:24:12;;;;;;;44.15;19.60;;;;;;;-3.10;100.00;99362.16;4954520;28;20085;-74
2022/11/22 00:26:37;;;;;;;;;;;;;;;-3.14;100.00;99348.47;4958724;28;20037;-74
2022/11/22 00:29:03;;;;;;;48.58;20.98;;;;;;;-3.20;100.00;99338.50;4980454;28;20299;-74
2022/11/22 00:31:28;;;;;;;48.72;21.48;;;;;;;-3.21;100.00;99337.66;4963624;28;20066;-74
2022/11/22 00:33:53;;;;;;;51.05;21.33;;;;;;;-3.17;100.00;99333.03;4946145;28;20035;-74
2022/11/22 00:36:19;;;;;;;51.50;21.52;;;;;;;-3.17;100.00;99320.00;4967603;28;20503;-74
2022/11/22 00:38:44;;;;;;;44.30;20.33;;;;;;;-3.16;100.00;99307.75;4945445;28;20019;-74
2022/11/22 00:41:09;;;;;;;46.92;20.90;;;;;;;-3.19;100.00;99309.66;4969089;28;20042;-74
2022/11/22 00:43:34;;;;;;;;;;;;;;;-3.14;100.00;99303.28;4942633;28;20049;-74
2022/11/22 00:46:00;;;;;;;51.57;21.43;;;;;;;-3.16;100.00;99315.59;4968006;28;20004;-74
2022/11/22 00:48:26;;;;;;;42.75;21.13;;;;;;;-3.15;100.00;99315.50;4963131;28;20051;-74
2022/11/22 00:50:51;;;;;;;45.03;22.30;;;;;;;-3.11;100.00;99308.28;4959075;28;20045;-74
2022/11/22 00:53:17;;;;;;;47.92;20.90;;;;;;;-3.17;100.00;99306.94;4959152;28;20062;-74
2022/11/22 00:55:44;;;;;;;48.42;19.48;;;;;;;-3.20;100.00;99309.78;4954641;28;20043;-74
2022/11/22 00:58:09;;;;;;;47.35;21.02;;;;;;;-3.21;100.00;99305.47;4941909;28;20107;-74
2022/11/22 01:00:35;;;;;;;53.95;21.92;;;;;;;-3.17;100.00;99317.38;4951031;28;20039;-74
2022/11/22 01:03:00;;;;;;;43.58;20.55;;;;;;;-3.15;100.00;99319.91;4960645;28;20043;-74
2022/11/22 01:05:25;;;;;;;52.45;20.77;;;;;;;-3.12;100.00;99330.09;4950358;28;20043;-74
2022/11/22 01:07:51;;;;;;;;;;;;;;;-3.08;100.00;99332.38;4956528;28;20074;-74
2022/11/22 01:10:16;;;;;;;50.37;19.67;;;;;;;-3.14;100.00;99327.59;4955620;28;19921;-74
2022/11/22 01:12:41;;;;;;;47.72;20.63;;;;;;;-3.14;100.00;99326.78;4947637;28;20096;-74
2022/11/22 01:15:07;;;;;;;51.33;21.40;;;;;;;-3.18;100.00;99315.72;4960291;28;20039;-74
2022/11/22 01:17:33;;;;;;;46.38;20.55;;;;;;;-3.12;100.00;99317.06;4958477;28;20031;-74
2022/11/22 01:19:58;;;;;;;46.92;21.25;;;;;;;-3.15;100.00;99302.44;4954169;28;20047;-74
2022/11/22 01:22:23;;;;;;;51.55;22.88;;;;;;;-3.09;100.00;99306.38;4966013;28;20043;-74
2022/11/22 01:24:49;;;;;;;;;;;;;;;-3.08;100.00;99302.84;4965235;28;20061;-74
2022/11/22 01:27:14;;;;;;;44.20;19.60;;;;;;;-3.12;100.00;99294.38;4951198;28;19944;-74
2022/11/22 01:29:39;;;;;;;47.28;19.58;;;;;;;-3.09;100.00;99294.19;4967584;28;20150;-74
2022/11/22 01:32:05;;;;;;;47.13;19.73;;;;;;;-3.02;100.00;99299.75;4957727;28;20050;-74
2022/11/22 01:34:31;;;;;;;51.33;22.60;;;;;;;-2.98;100.00;99298.59;4968189;28;20042;-74
2022/11/22 01:36:56;;;;;;;41.72;18.52;;;;;;;-3.00;100.00;99303.97;4953714;28;20031;-74
2022/11/22 01:39:22;;;;;;;46.00;19.40;;;;;;;-2.99;100.00;99303.00;4967231;28;20278;-74
2022/11/22 01:41:47;;;;;;;45.85;19.98;;;;;;;-3.02;100.00;99302.38;4946117;28;20123;-74
2022/11/22 01:44:29;;;;;;;;;;;;;;;-2.98;100.00;99299.44;4955967;28;20087;-74
2022/11/22 01:47:11;;;;;;;50.78;21.08;;;;;;;-2.88;100.00;99311.81;4955084;28;20438;-74
2022/11/22 01:49:59;;;;;;;56.22;22.65;;;;;;;-2.90;100.00;99301.50;4962498;28;20086;-74
2022/11/22 01:52:28;;;;;;;44.13;18.83;;;;;;;-2.95;100.00;99308.84;4957173;28;20440;-74
2022/11/22 01:55:07;;;;;;;48.45;20.92;;;;;;;-2.84;100.00;99302.81;4969816;28;20050;-74
2022/11/22 01:57:36;;;;;;;46.83;19.15;;;;;;;-2.86;100.00;99304.72;4966459;28;20039;-74
2022/11/22 02:00:11;;;;;;;47.30;21.20;;;;;;;-2.82;100.00;99316.59;4946500;28;20035;-74
2022/11/22 02:02:51;;;;;;;41.38;17.67;;;;;;;-2.78;100.00;99308.44;4948065;28;20037;-74
2022/11/22 02:05:20;;;;;;;47.53;19.08;;;;;;;-2.73;100.00;99308.09;4953493;28;20069;-74
2022/11/22 02:07:58;;;;;;;43.28;19.00;;;;;;;-2.75;100.00;99296.91;4962202;28;20039;-74
2022/11/22 02:10:27;;;;;;;39.72;18.40;;;;;;;-2.71;100.00;99298.38;4971209;28;20031;-74
2022/11/22 02:12:56;;;;;;;47.10;18.42;;;;;;;-2.68;100.00;99297.31;4966572;28;20097;-74
2022/11/22 02:15:21;;;;;;;41.35;17.77;;;;;;;-2.65;100.00;99307.53;4966155;28;20457;-74
2022/11/22 02:17:47;;;;;;;43.55;19.63;;;;;;;-2.74;100.00;99301.19;4957000;28;20117;-74
2022/11/22 02:20:12;;;;;;;44.58;19.63;;;;;;;-2.72;100.00;99299.31;4966256;28;20064;-74
2022/11/22 02:22:40;;;;;;;39.47;17.95;;;;;;;-2.65;100.00;99313.56;4961960;28;20158;-74
2022/11/22 02:25:21;;;;;;;43.47;18.80;;;;;;;-2.63;100.00;99310.84;4955092;28;20043;-74
2022/11/22 02:27:48;;;;;;;46.92;19.85;;;;;;;-2.65;100.00;99307.53;4945577;28;20043;-74
2022/11/22 02:30:14;;;;;;;40.85;18.05;;;;;;;-2.64;100.00;99319.66;4954961;28;20042;-74
2022/11/22 02:32:39;;;;;;;41.47;18.13;;;;;;;-2.63;100.00;99306.47;4955387;28;20090;-74
2022/11/22 02:35:31;;;;;;;49.03;20.02;;;;;;;-2.55;100.00;99306.75;4962926;28;20035;-74
2022/11/22 02:38:04;;;;;;;47.20;18.40;;;;;;;-2.51;100.00;99302.09;4951284;28;20078;-74
2022/11/22 02:40:41;;;;;;;47.72;20.13;;;;;;;-2.49;100.00;99283.69;4966200;28;20046;-74
2022/11/22 02:43:17;;;;;;;46.97;21.83;;;;;;;-2.47;100.00;99280.03;4962690;28;20401;-74
2022/11/22 02:45:42;;;;;;;43.83;19.55;;;;;;;-2.44;100.00;99273.72;4953583;28;20035;-74
2022/11/22 02:48:10;;;;;;;43.80;20.05;;;;;;;-2.46;100.00;99271.25;4946469;28;20499;-74
2022/11/22 02:50:36;;;;;;;45.28;19.15;;;;;;;-2.48;100.00;99262.69;4959956;28;20038;-74
2022/11/22 02:53:02;;;;;;;52.53;21.17;;;;;;;-2.48;100.00;99257.47;4961802;28;20038;-74
2022/11/22 02:55:28;;;;;;;50.17;21.70;;;;;;;-2.45;100.00;99256.41;4956517;28;20035;-74
2022/11/22 02:57:53;;;;;;;43.95;19.00;;;;;;;-2.53;100.00;99238.66;4959193;28;20138;-74
2022/11/22 03:00:19;;;;;;;48.35;21.80;;;;;;;-2.48;100.00;99240.94;4947754;28;20111;-74
2022/11/22 03:02:44;;;;;;;51.92;20.77;;;;;;;-2.47;100.00;99232.97;4945746;28;20591;-74
2022/11/22 03:05:09;;;;;;;46.05;20.40;;;;;;;-2.46;100.00;99239.88;4959205;28;20081;-74
2022/11/22 03:07:35;;;;;;;44.92;20.27;;;;;;;-2.34;100.00;99235.50;4948781;28;20070;-74
2022/11/22 03:10:00;;;;;;;44.92;18.10;;;;;;;-2.44;100.00;99242.38;4952762;28;20504;-74
2022/11/22 03:12:25;;;;;;;49.88;20.70;;;;;;;-2.37;100.00;99238.34;4963925;28;20042;-74
2022/11/22 03:14:51;;;;;;;45.95;18.50;;;;;;;-2.46;100.00;99224.22;4962311;28;20070;-74
2022/11/22 03:17:16;;;;;;;45.08;19.38;;;;;;;-2.35;100.00;99239.88;4965988;28;20062;-74
2022/11/22 03:19:41;;;;;;;45.42;21.75;;;;;;;-2.37;100.00;99240.94;4955319;28;20050;-74
2022/11/22 03:22:07;;;;;;;41.05;20.27;;;;;;;-2.35;100.00;99246.91;4963208;28;20043;-74
2022/11/22 03:24:33;;;;;;;44.28;20.70;;;;;;;-2.40;100.00;99244.63;4970720;28;20065;-74
2022/11/22 03:26:58;;;;;;;44.88;19.65;;;;;;;-2.33;100.00;99247.63;4951609;28;20149;-74
2022/11/22 03:29:23;;;;;;;41.33;20.20;;;;;;;-2.35;100.00;99239.06;4958729;28;20055;-74
2022/11/22 03:31:49;;;;;;;42.55;21.00;;;;;;;-2.31;100.00;99248.34;4963174;28;20133;-73
2022/11/22 03:34:14;;;;;;;45.28;19.50;;;;;;;-2.26;100.00;99243.59;4963997;28;20035;-73
2022/11/22 03:36:40;;;;;;;41.30;17.73;;;;;;;-2.25;100.00;99232.16;4958291;28;20035;-72
2022/11/22 03:39:06;;;;;;;44.30;18.92;;;;;;;-2.28;100.00;99224.56;4955408;28;20535;-73
2022/11/22 03:41:31;;;;;;;45.45;18.98;;;;;;;-2.21;100.00;99233.59;4959481;28;20030;-73
2022/11/22 03:43:56;;;;;;;37.60;17.13;;;;;;;-2.17;100.00;99235.03;4970206;28;20051;-72
2022/11/22 03:46:22;;;;;;;47.95;19.88;;;;;;;-2.22;100.00;99225.88;4960757;28;20034;-73
2022/11/22 03:48:47;;;;;;;38.75;17.15;;;;;;;-2.21;100.00;99223.13;4960384;28;20045;-73
2022/11/22 03:51:13;;;;;;;41.25;20.40;;;;;;;-2.31;100.00;99206.50;4953305;28;20485;-73
2022/11/22 03:53:38;;;;;;;42.15;17.85;;;;;;;-2.23;100.00;99214.56;4958927;28;20034;-73
2022/11/22 03:56:04;;;;;;;41.65;19.40;;;;;;;-2.19;100.00;99221.25;4965696;28;20046;-73
2022/11/22 03:58:30;;;;;;;38.00;17.67;;;;;;;-2.13;100.00;99220.78;4954936;28;20043;-73
2022/11/22 04:00:56;;;;;;;47.25;19.27;;;;;;;-2.11;100.00;99194.50;4961111;28;20035;-73
2022/11/22 04:03:21;;;;;;;46.42;18.58;;;;;;;-2.13;100.00;99204.25;4938731;28;20047;-73
2022/11/22 04:05:47;;;;;;;39.17;16.73;;;;;;;-2.15;100.00;99196.53;4953602;28;20045;-73
2022/11/22 04:08:13;;;;;;;35.97;17.23;;;;;;;-2.15;100.00;99209.59;4951717;28;20121;-73
2022/11/22 04:10:38;;;;;;;41.20;18.98;;;;;;;-2.08;100.00;99211.72;4958451;28;20280;-74
2022/11/22 04:13:03;;;;;;;44.80;19.58;;;;;;;-2.11;100.00;99212.78;4951595;28;20039;-73
2022/11/22 04:15:29;;;;;;;39.13;18.67;;;;;;;-2.13;100.00;99204.25;4958928;28;20051;-73
2022/11/22 04:17:54;;;;;;;42.83;19.60;;;;;;;-2.02;100.00;99187.72;4942332;28;20066;-72
2022/11/22 04:23:12;;;;;;;50.97;20.35;;;;;;;-2.01;100.00;99198.06;4956043;28;20401;-72
2022/11/22 04:25:41;;;;;;;45.22;19.10;;;;;;;-1.98;100.00;99213.50;4963401;28;20048;-73
2022/11/22 04:28:09;;;;;;;46.30;20.20;;;;;;;-1.96;100.00;99210.78;4956259;28;20031;-73
2022/11/22 04:33:19;;;;;;;40.58;19.80;;;;;;;-1.90;100.00;99210.28;4952453;28;20360;-73
2022/11/22 04:35:45;;;;;;;41.08;16.95;;;;;;;-1.85;100.00;99221.25;4944273;28;20038;-72
2022/11/22 04:38:11;;;;;;;40.25;18.83;;;;;;;-1.87;100.00;99217.91;4956360;28;20035;-72
2022/11/22 04:40:37;;;;;;;43.92;20.42;;;;;;;-1.94;100.00;99217.56;4954490;28;20066;-73
2022/11/22 04:45:47;;;;;;;43.65;20.15;;;;;;;-1.82;100.00;99226.22;4964837;28;20710;-73
2022/11/22 04:48:13;;;;;;;47.00;20.30;;;;;;;-1.83;100.00;99236.81;4954921;28;20151;-72
2022/11/22 04:53:24;;;;;;;39.90;18.05;;;;;;;-1.83;100.00;99242.84;4961520;28;20603;-72
2022/11/22 04:55:50;;;;;;;47.05;20.73;;;;;;;-1.74;100.00;99251.78;4954827;28;20039;-72
2022/11/22 04:58:16;;;;;;;44.55;19.85;;;;;;;-1.67;100.00;99252.13;4956491;28;20027;-72
2022/11/22 05:00:42;;;;;;;47.30;19.65;;;;;;;-1.78;100.00;99245.97;4964550;28;20326;-72
2022/11/22 05:03:08;;;;;;;43.30;18.48;;;;;;;-1.72;100.00;99247.25;4948147;28;20046;-73
2022/11/22 05:05:35;;;;;;;45.10;19.05;;;;;;;-1.70;100.00;99237.50;4965367;28;20031;-73
2022/11/22 05:08:01;;;;;;;51.42;20.88;;;;;;;-1.60;100.00;99256.75;4952615;28;20035;-73
2022/11/22 05:10:26;;;;;;;44.47;19.63;;;;;;;-1.47;100.00;99255.81;4953978;28;20054;-73
2022/11/22 05:12:52;;;;;;;40.10;18.63;;;;;;;-1.49;100.00;99251.50;4954226;28;20039;-73
2022/11/22 05:15:18;;;;;;;43.15;18.23;;;;;;;-1.46;100.00;99253.03;4965699;28;20035;-73
2022/11/22 05:17:43;;;;;;;44.85;20.20;;;;;;;-1.51;100.00;99260.44;4952643;28;20859;-73
2022/11/22 05:20:09;;;;;;;45.35;19.00;;;;;;;-1.49;100.00;99276.84;4968795;28;20161;-72
2022/11/22 05:25:19;;;;;;;33.28;15.10;;;;;;;-1.48;100.00;99288.97;4958276;28;20035;-72
2022/11/22 05:27:45;;;;;;;48.75;20.52;;;;;;;-1.45;100.00;99282.66;4936795;28;20563;-73
2022/11/22 05:30:10;;;;;;;47.28;20.67;;;;;;;-1.41;100.00;99279.69;4956714;28;20539;-73
2022/11/22 05:32:35;;;;;;;41.80;20.08;;;;;;;-1.39;100.00;99283.00;4956996;28;20383;-73
2022/11/22 05:35:01;;;;;;;46.65;19.85;;;;;;;-1.40;100.00;99281.34;4955759;28;20039;-72
2022/11/22 05:37:27;;;;;;;44.25;19.02;;;;;;;-1.36;100.00;99277.56;4950420;28;20034;-73
2022/11/22 05:39:52;;;;;;;36.83;16.92;;;;;;;-1.32;100.00;99273.72;4955000;28;20031;-73
2022/11/22 05:42:18;;;;;;;41.53;19.85;;;;;;;-1.28;100.00;99266.47;4949859;28;20066;-72
2022/11/22 05:44:43;;;;;;;37.72;18.02;;;;;;;-1.23;100.00;99263.47;4969363;28;20018;-73
2022/11/22 05:47:09;;;;;;;36.72;17.40;;;;;;;-1.21;100.00;99264.19;4957337;28;20039;-73
2022/11/22 05:49:35;;;;;;;39.33;17.98;;;;;;;-1.15;100.00;99259.28;4955517;28;20042;-72
2022/11/22 05:52:01;;;;;;;37.08;17.35;;;;;;;-1.20;100.00;99265.84;4943635;28;20035;-73
2022/11/22 05:54:27;;;;;;;45.50;18.40;;;;;;;-1.19;100.00;99262.28;4953673;28;20043;-73
2022/11/22 05:56:52;;;;;;;39.45;18.65;;;;;;;-1.20;100.00;99269.28;4966488;28;20037;-73
2022/11/22 05:59:17;;;;;;;34.25;17.20;;;;;;;-1.17;100.00;99281.28;4969046;28;20037;-73
2022/11/22 06:01:43;;;;;;;39.10;17.60;;;;;;;-1.13;100.00;99269.63;4967477;28;20046;-73
2022/11/22 06:04:08;;;;;;;37.92;16.98;;;;;;;-1.17;100.00;99261.19;4967734;28;20039;-73
2022/11/22 06:06:33;;;;;;;34.42;15.63;;;;;;;-1.15;100.00;99259.28;4953519;28;20031;-72
2022/11/22 06:08:59;;;;;;;34.75;16.65;;;;;;;-1.10;100.00;99262.34;4967207;28;20405;-72
2022/11/22 06:11:26;;;;;;;33.83;17.27;;;;;;;-1.08;100.00;99249.97;4967266;28;20057;-72
2022/11/22 06:13:58;;;;;;;35.28;16.83;;;;;;;-1.13;100.00;99252.09;4952523;28;20105;-73
2022/11/22 06:16:25;;;;;;;36.60;16.80;;;;;;;-1.12;100.00;99252.97;4965161;28;20043;-72
2022/11/22 06:18:52;;;;;;;41.45;18.92;;;;;;;-1.06;100.00;99253.28;4940479;28;20073;-72
2022/11/22 06:21:22;;;;;;;42.17;19.15;;;;;;;-1.06;100.00;99257.69;4968434;28;20030;-73
2022/11/22 06:23:48;;;;;;;34.47;17.67;;;;;;;-1.05;100.00;99259.38;4960453;28;20042;-73
2022/11/22 06:26:16;;;;;;;43.22;19.35;;;;;;;-1.04;100.00;99249.72;4952371;28;20098;-73
2022/11/22 06:28:42;;;;;;;35.60;17.83;;;;;;;-1.03;100.00;99252.22;4954311;28;20077;-73
2022/11/22 06:31:13;;;;;;;;;;;;;;;-0.94;100.00;99248.00;4951700;28;20123;-73
2022/11/22 06:33:40;;;;;;;40.28;18.58;;;;;;;-0.95;100.00;99256.81;4963752;28;20036;-73
2022/11/22 06:36:09;;;;;;;44.03;18.88;;;;;;;-0.90;100.00;99252.84;4948450;28;20035;-73
2022/11/22 06:38:35;;;;;;;42.00;19.85;;;;;;;-0.96;100.00;99248.13;4948573;28;20039;-72
2022/11/22 06:41:02;;;;;;;38.85;19.27;;;;;;;-0.90;100.00;99252.84;4953892;28;20114;-73
2022/11/22 06:43:29;;;;;;;42.28;19.83;;;;;;;-0.89;100.00;99253.69;4950660;28;20039;-72
2022/11/22 06:45:58;;;;;;;39.28;19.92;;;;;;;-0.88;100.00;99258.81;4951842;28;20015;-72
2022/11/22 06:48:24;;;;;;;52.05;22.05;;;;;;;-0.90;100.00;99257.28;4948666;28;20126;-73
2022/11/22 06:50:50;;;;;;;;;;;;;;;-0.85;100.00;99255.94;4934184;28;20412;-73
2022/11/22 06:53:15;;;;;;;38.92;17.73;;;;;;;-0.85;100.00;99249.84;4959624;28;19914;-72
2022/11/22 06:55:40;;;;;;;39.28;19.40;;;;;;;-0.92;100.00;99239.03;4958430;28;20100;-73
2022/11/22 06:58:06;;;;;;;40.10;17.57;;;;;;;-0.82;100.00;99251.41;4962357;28;20092;-72
2022/11/22 07:00:31;;;;;;;43.47;20.13;;;;;;;-0.80;100.00;99249.47;4966184;28;20365;-72
2022/11/22 07:02:56;;;;;;;41.47;19.60;;;;;;;-0.83;100.00;99237.47;4953106;28;20333;-73
2022/11/22 07:05:21;;;;;;;42.83;19.30;;;;;;;-0.82;100.00;99243.53;4954030;28;20291;-73
2022/11/22 07:07:47;;;;;;;45.90;22.20;;;;;;;-0.86;100.00;99238.56;4953891;28;20301;-72
2022/11/22 07:10:12;;;;;;;45.90;21.27;;;;;;;-0.75;100.00;99244.69;4951073;28;20286;-73
2022/11/22 07:12:38;;;;;;;47.83;23.30;;;;;;;-0.75;100.00;99239.44;4959439;28;20282;-72
2022/11/22 07:15:03;;;;;;;43.33;20.13;;;;;;;-0.73;100.00;99238.34;4952788;28;20106;-72
2022/11/22 07:17:29;;;;;;;39.33;18.52;;;;;;;-0.71;100.00;99236.44;4953905;28;20349;-72
2022/11/22 07:19:54;;;;;;;40.95;20.30;;;;;;;-0.67;100.00;99240.47;4963135;28;20047;-72
2022/11/22 07:22:19;;;;;;;41.92;19.95;;;;;;;-0.70;100.00;99234.69;4947551;28;20039;-72
2022/11/22 07:24:45;;;;;;;44.05;21.23;;;;;;;-0.68;100.00;99227.50;4955179;28;20050;-72
2022/11/22 07:27:10;;;;;;;42.90;19.93;;;;;;;-0.63;100.00;99243.69;4953049;28;20102;-72
2022/11/22 07:29:35;;;;;;;40.45;19.65;;;;;;;-0.61;100.00;99247.00;4960443;28;20046;-73
2022/11/22 07:32:01;;;;;;;40.13;18.55;;;;;;;-0.69;100.00;99239.78;4951506;28;20228;-72
2022/11/22 07:34:26;;;;;;;38.70;20.47;;;;;;;-0.67;100.00;99258.00;4960145;28;20026;-72
2022/11/22 07:36:51;;;;;;;40.13;19.43;;;;;;;-0.66;100.00;99251.78;4961419;28;20373;-73
2022/11/22 07:39:17;;;;;;;42.63;20.40;;;;;;;-0.72;100.00;99240.03;4957772;28;20366;-73
2022/11/22 07:41:42;;;;;;;42.60;20.42;;;;;;;-0.65;100.00;99240.38;4940391;28;20114;-73
2022/11/22 07:44:07;;;;;;;44.47;19.33;;;;;;;-0.64;100.00;99237.59;4951436;28;20416;-73
2022/11/22 07:46:33;;;;;;;41.47;19.27;;;;;;;-0.65;100.00;99245.59;4947677;28;20274;-72
2022/11/22 07:49:00;;;;;;;44.85;22.15;;;;;;;-0.70;100.00;99246.00;4951567;28;20075;-72
2022/11/22 07:51:26;;;;;;;43.25;20.55;;;;;;;-0.66;100.00;99252.66;4953390;28;20485;-72
2022/11/22 07:53:53;;;;;;;46.70;21.13;;;;;;;-0.70;100.00;99245.16;4958884;28;20448;-73
2022/11/22 07:56:18;;;;;;;45.22;19.88;;;;;;;-0.69;100.00;99245.00;4961926;28;20065;-72
2022/11/22 07:58:44;;;;;;;43.10;20.25;;;;;;;-0.75;100.00;99248.16;4961696;28;20110;-72
2022/11/22 08:01:12;;;;;;;50.70;21.37;;;;;;;-0.72;100.00;99257.56;4946000;28;20093;-72
2022/11/22 08:03:37;;;;;;;47.67;20.02;;;;;;;-0.76;100.00;99237.78;4955856;28;20348;-72
2022/11/22 08:06:05;;;;;;;51.08;22.42;;;;;;;-0.76;100.00;99248.28;4945090;28;20039;-72
2022/11/22 08:08:31;;;;;;;46.88;21.77;;;;;;;-0.72;100.00;99244.47;4966063;28;20047;-72
2022/11/22 08:10:56;;;;;;;52.88;23.58;;;;;;;-0.70;100.00;99260.88;4957128;28;20066;-72
2022/11/22 08:13:23;;;;;;;41.67;19.77;;;;;;;-0.78;100.00;99250.19;4959870;28;20027;-72
2022/11/22 08:15:48;;;;;;;46.53;22.15;;;;;;;-0.76;100.00;99249.09;4954234;28;20054;-72
2022/11/22 08:18:14;;;;;;;49.35;21.35;;;;;;;-0.72;100.00;99241.84;4963174;28;20038;-72
2022/11/22 08:20:39;;;;;;;43.05;21.63;;;;;;;-0.76;100.00;99237.78;4955295;28;20408;-72
2022/11/22 08:23:05;;;;;;;53.25;23.45;;;;;;;-0.69;100.00;99231.09;4949655;28;20089;-72
2022/11/22 08:25:30;;;;;;;43.58;21.45;;;;;;;-0.74;100.00;99230.66;4951282;28;20619;-72
2022/11/22 08:27:55;;;;;;;46.78;21.75;;;;;;;-0.73;100.00;99227.88;4942275;28;20039;-72
2022/11/22 08:30:21;;;;;;;46.13;21.20;;;;;;;-0.63;100.00;99238.44;4949835;28;20078;-72
2022/11/22 08:32:46;;;;;;;42.53;20.23;;;;;;;-0.47;100.00;99245.84;4941141;28;20035;-72
2022/11/22 08:35:12;;;;;;;56.08;23.27;;;;;;;-0.54;100.00;99242.94;4955708;28;20114;-72
2022/11/22 08:37:37;;;;;;;40.40;19.42;;;;;;;-0.55;100.00;99236.00;4957322;28;20054;-72
2022/11/22 08:40:03;;;;;;;46.73;22.23;;;;;;;-0.59;100.00;99226.72;4967163;28;20042;-72
2022/11/22 08:42:28;;;;;;;47.08;21.52;;;;;;;-0.55;100.00;99233.38;4958105;28;20038;-72
2022/11/22 08:44:54;;;;;;;48.67;22.37;;;;;;;-0.59;100.00;99244.25;4960718;28;20046;-72
2022/11/22 08:47:19;;;;;;;48.72;21.30;;;;;;;-0.55;100.00;99241.25;4949953;28;20481;-72
2022/11/22 08:49:45;;;;;;;47.28;21.92;;;;;;;-0.50;100.00;99243.47;4963558;28;20045;-72
2022/11/22 08:52:10;;;;;;;48.33;21.75;;;;;;;-0.49;100.00;99245.16;4955677;28;20452;-72
2022/11/22 08:54:36;;;;;;;44.15;22.17;;;;;;;-0.55;100.00;99250.91;4956660;28;20042;-72
2022/11/22 08:57:01;;;;;;;42.80;19.52;;;;;;;-0.56;100.00;99242.22;4960357;28;20094;-72
2022/11/22 08:59:26;;;;;;;43.67;20.33;;;;;;;-0.44;100.00;99259.53;4966438;28;20490;-73
2022/11/22 09:01:52;;;;;;;43.53;20.90;;;;;;;-0.58;100.00;99246.75;4964450;28;20074;-72
2022/11/22 09:04:17;;;;;;;51.88;22.92;;;;;;;-0.53;100.00;99241.94;4965171;28;20185;-73
2022/11/22 09:06:42;;;;;;;47.87;21.43;;;;;;;-0.70;100.00;99237.31;4955476;28;20062;-72
2022/11/22 09:09:08;;;;;;;50.58;22.13;;;;;;;-0.64;100.00;99250.69;4955028;28;20340;-72
2022/11/22 09:11:33;;;;;;;54.97;24.25;;;;;;;-0.65;100.00;99254.28;4962936;28;20042;-72
2022/11/22 09:13:59;;;;;;;47.35;22.45;;;;;;;-0.65;100.00;99256.09;4967724;28;20042;-72
2022/11/22 09:16:27;;;;;;;50.60;23.92;;;;;;;-0.57;100.00;99277.25;4950847;28;20166;-72
2022/11/22 09:18:53;;;;;;;45.63;22.20;;;;;;;-0.66;100.00;99272.75;4963926;28;20090;-72
2022/11/22 09:21:19;;;;;;;47.47;21.70;;;;;;;-0.72;100.00;99271.50;4964871;28;21182;-72
2022/11/22 09:23:46;;;;;;;50.63;23.42;;;;;;;-0.60;100.00;99288.00;4954463;28;20030;-72
2022/11/22 09:26:20;;;;;;;53.10;24.67;;;;;;;-0.64;100.00;99283.94;4937630;28;20083;-73
2022/11/22 09:28:45;;;;;;;45.95;22.25;;;;;;;-0.61;100.00;99288.09;4947502;28;20039;-72
2022/11/22 09:31:13;;;;;;;47.75;23.27;;;;;;;-0.65;100.00;99288.38;4952949;28;20042;-72
2022/11/22 09:33:41;;;;;;;49.60;24.65;;;;;;;-0.67;100.00;99294.69;4955180;28;20073;-72
2022/11/22 09:36:09;;;;;;;55.38;23.10;;;;;;;-0.61;100.00;99304.66;4952945;28;20034;-72
2022/11/22 09:38:35;;;;;;;47.67;23.42;;;;;;;-0.60;100.00;99302.91;4962092;28;20149;-72
2022/11/22 09:41:15;;;;;;;51.88;22.58;;;;;;;-0.53;100.00;99317.16;4954377;28;20493;-72
2022/11/22 09:44:17;;;;;;;52.25;23.85;;;;;;;-0.60;100.00;99318.63;4963176;28;20066;-72
2022/11/22 09:46:54;;;;;;;52.58;22.70;;;;;;;-0.60;100.00;99316.81;4954653;28;20039;-72
2022/11/22 09:50:05;;;;;;;47.50;21.63;;;;;;;-0.60;100.00;99310.75;4955723;28;20039;-74
2022/11/22 09:52:47;;;;;;;60.35;27.90;;;;;;;-0.64;100.00;99315.41;4966240;28;20449;-72
2022/11/22 09:55:28;;;;;;;58.17;26.30;;;;;;;-0.63;100.00;99322.34;4966118;28;20476;-72
2022/11/22 09:58:21;;;;;;;54.38;23.75;;;;;;;-0.62;100.00;99329.22;4954892;28;20039;-77
2022/11/22 10:00:47;;;;;;;50.97;23.85;;;;;;;-0.61;100.00;99330.06;4954215;28;20073;-72
2022/11/22 10:03:27;;;;;;;55.05;23.67;;;;;;;-0.59;100.00;99334.22;4953547;28;20450;-73
2022/11/22 10:05:56;;;;;;;51.30;23.70;;;;;;;-0.58;100.00;99328.03;4958799;28;20031;-72
2022/11/22 10:08:36;;;;;;;56.20;25.58;;;;;;;-0.57;100.00;99331.47;4964646;28;20050;-72
2022/11/22 10:11:10;;;;;;;53.03;25.13;;;;;;;-0.46;100.00;99337.50;4962774;28;20050;-72
2022/11/22 10:13:42;;;;;;;54.38;23.35;;;;;;;-0.47;100.00;99346.34;4965525;28;20035;-73
2022/11/22 10:16:29;;;;;;;53.08;23.15;;;;;;;-0.41;100.00;99336.28;4952841;28;20493;-72
2022/11/22 10:19:36;;;;;;;52.70;25.05;;;;;;;-0.51;100.00;99325.72;4973848;28;20035;-72
2022/11/22 10:22:08;;;;;;;54.50;23.00;;;;;;;-0.46;100.00;99320.94;4942373;28;20055;-71
2022/11/22 10:24:34;;;;;;;47.70;22.55;;;;;;;-0.37;100.00;99324.59;4930700;28;20134;-76
2022/11/22 10:27:00;;;;;;;48.73;22.60;;;;;;;-0.33;100.00;99318.97;4946608;28;20401;-73
2022/11/22 10:29:38;;;;;;;53.08;23.35;;;;;;;-0.30;100.00;99317.88;4952216;28;20322;-74
2022/11/22 10:32:41;;;;;;;50.67;20.80;;;;;;;-0.27;100.00;99328.94;4940597;29;20133;-74
2022/11/22 10:35:12;;;;;;;49.35;22.85;;;;;;;-0.19;100.00;99330.91;4946160;28;20031;-72
2022/11/22 10:37:54;;;;;;;47.20;21.88;;;;;;;-0.29;100.00;99317.72;4954569;28;20050;-71
2022/11/22 10:40:32;;;;;;;59.95;25.85;;;;;;;-0.18;100.00;99332.59;4937835;28;20038;-72
2022/11/22 10:43:03;;;;;;;51.80;24.20;;;;;;;-0.32;100.00;99319.78;4946074;28;20043;-72
2022/11/22 10:45:34;;;;;;;53.22;23.65;;;;;;;-0.31;100.00;99318.81;4940769;28;20076;-74
2022/11/22 10:48:20;;;;;;;55.28;23.20;;;;;;;-0.23;100.00;99324.28;4925795;29;20054;-75
2022/11/22 10:50:51;;;;;;;48.72;23.42;;;;;;;-0.27;100.00;99320.25;4938539;28;20118;-72
2022/11/22 10:53:30;;;;;;;53.30;23.80;;;;;;;-0.25;100.00;99327.00;4957132;28;20043;-72
2022/11/22 10:56:03;;;;;;;53.40;23.45;;;;;;;-0.18;100.00;99329.13;4933191;28;20050;-72
2022/11/22 10:58:39;;;;;;;48.80;21.15;;;;;;;-0.19;100.00;99327.47;4946101;28;20047;-74
2022/11/22 11:01:23;;;;;;;47.63;21.17;;;;;;;-0.22;100.00;99315.44;4951624;28;20031;-72
2022/11/22 11:03:53;;;;;;;48.72;21.15;;;;;;;-0.18;100.00;99316.84;4953225;28;20043;-73
2022/11/22 11:06:25;;;;;;;54.10;23.65;;;;;;;-0.25;100.00;99307.81;4953268;28;20039;-76
2022/11/22 11:08:56;;;;;;;43.67;21.35;;;;;;;-0.27;100.00;99317.63;4952513;28;20034;-72
2022/11/22 11:11:24;;;;;;;46.28;21.50;;;;;;;-0.29;100.00;99309.03;4954868;28;20073;-72
2022/11/22 11:13:53;;;;;;;47.13;21.42;;;;;;;-0.21;100.00;99306.63;4955013;28;20057;-74
2022/11/22 11:16:27;;;;;;;48.03;22.30;;;;;;;-0.23;100.00;99298.88;4948278;28;20564;-76
2022/11/22 11:19:05;;;;;;;49.08;21.95;;;;;;;-0.12;100.00;99297.94;4948386;28;20046;-71
2022/11/22 11:21:31;;;;;;;49.92;22.77;;;;;;;-0.18;100.00;99290.63;4960192;28;20062;-75
2022/11/22 11:23:56;;;;;;;46.13;22.87;;;;;;;-0.22;100.00;99297.06;4961384;28;20126;-73
2022/11/22 11:26:28;;;;;;;53.45;23.55;;;;;;;-0.22;100.00;99297.91;4949851;28;20030;-71
2022/11/22 11:29:18;;;;;;;52.40;24.45;;;;;;;-0.32;100.00;99293.56;4953583;28;20737;-72
2022/11/22 11:31:49;;;;;;;48.28;21.75;;;;;;;-0.27;100.00;99305.31;4979596;28;20158;-74